Time;durP1;ratioP1;P1;durP2;ratioP2;P2;SDS_P1;SDS_P2;PMS_P1;PMS_P2;Temp;Humidity;BMP_temperature;BMP_pressure;BME280_temperature;BME280_humidity;BME280_pressure;Samples;Min_cycle;Max_cycle;Signal;HPM_P1;HPM_P2
2023/09/21 00:00:38;;;;;;;241.18;234.15;;;;;;;;;;5038475;28;20752;-91
2023/09/21 00:02:55;;;;;;;232.88;226.07;;;;;;;;;;5027956;28;20197;-91
2023/09/21 00:05:23;;;;;;;250.55;243.18;;;;;;;;;;5020340;28;20521;-91
2023/09/21 00:07:49;;;;;;;244.70;237.63;;;;;;;;;;5024923;28;20683;-92
2023/09/21 00:10:15;;;;;;;257.73;250.40;;;;;;;;;;5018114;28;20551;-91
2023/09/21 00:12:42;;;;;;;250.38;242.95;;;;;;;;;;5028734;28;20188;-91
2023/09/21 00:15:09;;;;;;;245.48;238.15;;;;;;;;;;5036674;28;20222;-90
2023/09/21 00:17:37;;;;;;;249.45;242.27;;;;;;;;;;5036245;28;20196;-91
2023/09/21 00:20:10;;;;;;;246.52;239.50;;;;;;;;;;5036997;28;20191;-91
2023/09/21 00:22:37;;;;;;;246.80;239.80;;;;;;;;;;5036966;28;20211;-91
2023/09/21 00:25:04;;;;;;;244.20;237.20;;;;;;;;;;5035105;28;20208;-91
2023/09/21 00:27:30;;;;;;;228.23;221.52;;;;;;;;;;5037920;28;20271;-92
2023/09/21 00:29:56;;;;;;;252.90;245.57;;;;;;;;;;5035912;28;20188;-93
2023/09/21 00:32:25;;;;;;;242.13;234.93;;;;;;;;;;5032331;28;20560;-92
2023/09/21 00:34:52;;;;;;;228.68;221.68;;;;;;;;;;5026780;28;20291;-92
2023/09/21 00:37:18;;;;;;;228.93;222.33;;;;;;;;;;5032988;28;20390;-91
2023/09/21 00:39:44;;;;;;;239.53;232.43;;;;;;;;;;5037699;28;20274;-92
2023/09/21 00:42:10;;;;;;;233.57;226.83;;;;;;;;;;5035703;28;20217;-91
2023/09/21 00:44:36;;;;;;;223.07;216.40;;;;;;;;;;5035909;28;20455;-91
2023/09/21 00:47:03;;;;;;;226.03;219.53;;;;;;;;;;5030902;28;20279;-92
2023/09/21 00:49:30;;;;;;;229.25;222.45;;;;;;;;;;5029382;28;20225;-92
2023/09/21 00:51:57;;;;;;;224.95;218.48;;;;;;;;;;5032344;28;20754;-92
2023/09/21 00:54:24;;;;;;;235.90;229.10;;;;;;;;;;5026953;28;20670;-92
2023/09/21 00:56:52;;;;;;;239.93;232.60;;;;;;;;;;5020896;28;20339;-92
2023/09/21 00:59:19;;;;;;;245.30;238.23;;;;;;;;;;5028181;28;20735;-91
2023/09/21 01:01:45;;;;;;;237.55;230.77;;;;;;;;;;5016025;28;20226;-91
2023/09/21 01:04:12;;;;;;;228.18;221.48;;;;;;;;;;5023495;28;20216;-91
2023/09/21 01:06:39;;;;;;;237.80;231.02;;;;;;;;;;5034700;28;20238;-91
2023/09/21 01:09:06;;;;;;;215.93;209.63;;;;;;;;;;5033068;28;20180;-91
2023/09/21 01:11:37;;;;;;;220.80;214.30;;;;;;;;;;5031701;28;20333;-91
2023/09/21 01:14:03;;;;;;;221.90;215.40;;;;;;;;;;5035631;28;20274;-90
2023/09/21 01:16:30;;;;;;;230.38;223.63;;;;;;;;;;5036212;28;20237;-92
2023/09/21 01:18:56;;;;;;;231.50;224.75;;;;;;;;;;5021480;28;20193;-91
2023/09/21 01:21:35;;;;;;;225.95;219.32;;;;;;;;;;5034838;28;20192;-90
2023/09/21 01:24:03;;;;;;;208.00;201.77;;;;;;;;;;5036842;28;20250;-91
2023/09/21 01:26:29;;;;;;;207.30;201.23;;;;;;;;;;5027846;28;20229;-91
2023/09/21 01:28:56;;;;;;;199.67;193.83;;;;;;;;;;5021207;28;20224;-91
2023/09/21 01:31:23;;;;;;;183.37;177.97;;;;;;;;;;5036860;28;20271;-90
2023/09/21 01:33:49;;;;;;;198.27;192.27;;;;;;;;;;5035971;28;20746;-91
2023/09/21 01:36:18;;;;;;;200.67;194.63;;;;;;;;;;5027730;28;20195;-92
2023/09/21 01:38:46;;;;;;;189.37;183.73;;;;;;;;;;5028775;28;20222;-91
2023/09/21 01:41:14;;;;;;;185.80;180.30;;;;;;;;;;5040944;28;20451;-91
2023/09/21 01:43:40;;;;;;;193.13;187.43;;;;;;;;;;5040438;28;20244;-90
2023/09/21 01:46:06;;;;;;;193.17;187.33;;;;;;;;;;5034710;28;20204;-92
2023/09/21 01:48:32;;;;;;;167.90;162.87;;;;;;;;;;5028771;28;20241;-91
2023/09/21 01:50:59;;;;;;;160.37;155.50;;;;;;;;;;5038426;28;20846;-91
2023/09/21 01:53:25;;;;;;;176.17;170.87;;;;;;;;;;5025126;28;20214;-92
2023/09/21 01:55:52;;;;;;;184.43;178.63;;;;;;;;;;5021878;28;20189;-90
2023/09/21 01:58:19;;;;;;;188.87;183.20;;;;;;;;;;5024144;28;20195;-91
2023/09/21 02:00:46;;;;;;;170.70;165.53;;;;;;;;;;5030182;28;20233;-91
2023/09/21 02:03:13;;;;;;;166.57;161.57;;;;;;;;;;5039141;28;20195;-90
2023/09/21 02:05:43;;;;;;;175.02;169.55;;;;;;;;;;5037391;28;20661;-91
2023/09/21 02:08:10;;;;;;;180.70;175.40;;;;;;;;;;5030493;28;20253;-90
2023/09/21 02:10:37;;;;;;;185.10;179.60;;;;;;;;;;5022888;28;20197;-91
2023/09/21 02:13:05;;;;;;;196.83;191.00;;;;;;;;;;5038834;28;20187;-91
2023/09/21 02:15:35;;;;;;;193.38;187.73;;;;;;;;;;5038066;28;20181;-91
2023/09/21 02:18:02;;;;;;;203.10;197.10;;;;;;;;;;5022944;28;20220;-92
2023/09/21 02:20:29;;;;;;;200.07;194.15;;;;;;;;;;5032821;28;20190;-90
2023/09/21 02:22:59;;;;;;;205.48;199.48;;;;;;;;;;5039010;28;20191;-91
2023/09/21 02:25:26;;;;;;;212.68;206.20;;;;;;;;;;5038093;28;20211;-91
2023/09/21 02:27:52;;;;;;;219.30;212.90;;;;;;;;;;5038727;28;20211;-91
2023/09/21 02:30:21;;;;;;;234.97;228.17;;;;;;;;;;5038866;28;20290;-91
2023/09/21 02:32:51;;;;;;;216.37;210.17;;;;;;;;;;5037021;28;20209;-91
2023/09/21 02:35:19;;;;;;;212.45;206.20;;;;;;;;;;5033463;28;20305;-91
2023/09/21 02:37:48;;;;;;;216.10;209.70;;;;;;;;;;5038858;28;20276;-90
2023/09/21 02:40:19;;;;;;;218.53;212.13;;;;;;;;;;5032578;28;20254;-91
2023/09/21 02:42:46;;;;;;;218.50;211.83;;;;;;;;;;5018150;28;20212;-91
2023/09/21 02:45:12;;;;;;;195.27;189.50;;;;;;;;;;5032631;28;20213;-91
2023/09/21 02:47:42;;;;;;;214.07;207.80;;;;;;;;;;5039814;28;20785;-91
2023/09/21 02:50:14;;;;;;;228.63;221.50;;;;;;;;;;5036570;28;20244;-91
2023/09/21 02:52:54;;;;;;;194.27;188.60;;;;;;;;;;5027096;28;20201;-90
2023/09/21 02:55:21;;;;;;;246.93;239.63;;;;;;;;;;5016414;28;20211;-92
2023/09/21 02:57:49;;;;;;;247.47;240.10;;;;;;;;;;5021168;28;20188;-91
2023/09/21 03:00:26;;;;;;;251.43;244.00;;;;;;;;;;5037955;28;20708;-91
2023/09/21 03:02:54;;;;;;;240.17;233.10;;;;;;;;;;5038109;28;20239;-92
2023/09/21 03:05:21;;;;;;;238.20;231.07;;;;;;;;;;5030603;28;20210;-90
2023/09/21 03:07:48;;;;;;;245.53;237.97;;;;;;;;;;5036543;28;20307;-91
2023/09/21 03:10:16;;;;;;;241.33;234.23;;;;;;;;;;5019589;28;20221;-91
2023/09/21 03:12:42;;;;;;;276.77;268.67;;;;;;;;;;5036947;28;20209;-89
2023/09/21 03:15:16;;;;;;;258.43;250.83;;;;;;;;;;5038183;28;20219;-90
2023/09/21 03:17:45;;;;;;;238.40;231.43;;;;;;;;;;5038000;28;20572;-91
2023/09/21 03:20:12;;;;;;;213.10;206.80;;;;;;;;;;5037946;28;20194;-90
2023/09/21 03:22:43;;;;;;;209.90;203.53;;;;;;;;;;5037770;28;20199;-91
2023/09/21 03:25:15;;;;;;;200.93;194.93;;;;;;;;;;5038257;28;20210;-91
2023/09/21 03:27:41;;;;;;;172.23;166.87;;;;;;;;;;5022795;28;20210;-90
2023/09/21 03:30:12;;;;;;;165.60;160.53;;;;;;;;;;5036221;28;20331;-91
2023/09/21 03:32:41;;;;;;;174.70;169.50;;;;;;;;;;5031512;28;20199;-91
2023/09/21 03:35:11;;;;;;;195.17;189.40;;;;;;;;;;5038095;28;20213;-90
2023/09/21 03:37:47;;;;;;;157.17;152.50;;;;;;;;;;5030245;28;20325;-91
2023/09/21 03:40:14;;;;;;;152.23;147.53;;;;;;;;;;5041305;28;20180;-93
2023/09/21 03:42:44;;;;;;;146.13;141.50;;;;;;;;;;5034834;28;20242;-93
2023/09/21 03:45:15;;;;;;;153.33;148.70;;;;;;;;;;5041591;28;20712;-93
2023/09/21 03:47:52;;;;;;;;;;;;;;;;;;;;;
2023/09/21 03:50:29;;;;;;;144.40;139.90;;;;;;;;;;5027486;28;20254;-93
2023/09/21 03:53:05;;;;;;;139.98;135.80;;;;;;;;;;5032454;28;20702;-93
2023/09/21 03:55:34;;;;;;;140.02;135.70;;;;;;;;;;5235896;23;20241;-94
2023/09/21 03:58:00;;;;;;;137.83;133.57;;;;;;;;;;4993087;28;20195;-94
2023/09/21 04:00:47;;;;;;;143.93;139.50;;;;;;;;;;5008996;28;20182;-93
2023/09/21 04:03:16;;;;;;;137.03;132.77;;;;;;;;;;5006225;28;20190;-93
2023/09/21 04:05:42;;;;;;;162.27;157.13;;;;;;;;;;4987542;28;20250;-92
2023/09/21 04:08:11;;;;;;;153.73;149.00;;;;;;;;;;4984648;28;20244;-93
2023/09/21 04:10:37;;;;;;;147.30;142.87;;;;;;;;;;5001017;28;20863;-92
2023/09/21 04:13:03;;;;;;;132.40;128.30;;;;;;;;;;5001253;28;20383;-92
2023/09/21 04:15:32;;;;;;;144.40;139.70;;;;;;;;;;4983096;28;20332;-93
2023/09/21 04:17:59;;;;;;;183.60;177.97;;;;;;;;;;4999602;28;20186;-92
2023/09/21 04:20:25;;;;;;;185.60;180.20;;;;;;;;;;4982898;28;20245;-92
2023/09/21 04:22:55;;;;;;;161.63;156.87;;;;;;;;;;4982431;28;20194;-92
2023/09/21 04:25:21;;;;;;;171.87;166.63;;;;;;;;;;5000202;28;20213;-93
2023/09/21 04:27:53;;;;;;;157.70;152.97;;;;;;;;;;5000645;28;20214;-92
2023/09/21 04:30:23;;;;;;;169.63;164.53;;;;;;;;;;5000256;28;20181;-94
2023/09/21 04:32:50;;;;;;;172.20;167.10;;;;;;;;;;4984941;28;20315;-92
2023/09/21 04:35:20;;;;;;;179.97;174.67;;;;;;;;;;4983548;28;20209;-92
2023/09/21 04:37:58;;;;;;;173.93;168.67;;;;;;;;;;4984200;28;20207;-92
2023/09/21 04:40:27;;;;;;;156.27;151.53;;;;;;;;;;5002204;28;20293;-92
2023/09/21 04:42:53;;;;;;;144.77;140.13;;;;;;;;;;5000670;28;20195;-94
2023/09/21 04:45:20;;;;;;;149.60;145.02;;;;;;;;;;4991909;28;20223;-92
2023/09/21 04:47:48;;;;;;;147.98;143.43;;;;;;;;;;4990589;28;20242;-91
2023/09/21 04:50:16;;;;;;;152.40;147.77;;;;;;;;;;5001749;28;20210;-93
2023/09/21 04:52:48;;;;;;;149.60;144.70;;;;;;;;;;5001824;28;20203;-92
2023/09/21 04:55:25;;;;;;;148.93;144.07;;;;;;;;;;4988529;28;20642;-95
2023/09/21 04:57:52;;;;;;;155.07;150.45;;;;;;;;;;4972970;28;20183;-93
2023/09/21 05:00:18;;;;;;;164.57;159.60;;;;;;;;;;5004984;28;20190;-92
2023/09/21 05:02:44;;;;;;;159.13;154.20;;;;;;;;;;5004754;28;20218;-91
2023/09/21 05:05:19;;;;;;;160.55;155.75;;;;;;;;;;4986845;28;20212;-93
2023/09/21 05:07:45;;;;;;;164.20;159.07;;;;;;;;;;5000884;28;20213;-93
2023/09/21 05:10:14;;;;;;;164.67;159.70;;;;;;;;;;4988107;28;20662;-94
2023/09/21 05:12:40;;;;;;;163.50;158.20;;;;;;;;;;4985896;28;20263;-92
2023/09/21 05:15:14;;;;;;;174.73;169.33;;;;;;;;;;4990775;28;20210;-92
2023/09/21 05:17:41;;;;;;;167.77;162.77;;;;;;;;;;4987580;28;20194;-91
2023/09/21 05:20:09;;;;;;;172.03;166.67;;;;;;;;;;4987606;28;20199;-92
2023/09/21 05:22:39;;;;;;;166.27;161.20;;;;;;;;;;5006596;28;20211;-94
2023/09/21 05:25:05;;;;;;;162.40;157.47;;;;;;;;;;5003640;28;20230;-91
2023/09/21 05:27:32;;;;;;;155.90;151.00;;;;;;;;;;5001474;28;20208;-90
2023/09/21 05:30:00;;;;;;;147.13;142.65;;;;;;;;;;5002650;28;20272;-92
2023/09/21 05:32:27;;;;;;;149.10;144.07;;;;;;;;;;4984198;28;20197;-90
2023/09/21 05:34:53;;;;;;;157.83;152.80;;;;;;;;;;5000719;28;20232;-92
2023/09/21 05:37:22;;;;;;;164.63;159.60;;;;;;;;;;4983143;28;20200;-91
2023/09/21 05:39:49;;;;;;;160.93;156.07;;;;;;;;;;4984066;28;20204;-89
2023/09/21 05:42:15;;;;;;;168.43;163.05;;;;;;;;;;4992142;28;20201;-91
2023/09/21 05:44:42;;;;;;;184.63;179.23;;;;;;;;;;4998096;28;20234;-90
2023/09/21 05:47:09;;;;;;;192.07;186.27;;;;;;;;;;5001448;28;20230;-90
2023/09/21 05:49:36;;;;;;;179.40;174.13;;;;;;;;;;5001216;28;20278;-90
2023/09/21 05:52:08;;;;;;;152.85;148.00;;;;;;;;;;5001445;28;20215;-91
2023/09/21 05:54:35;;;;;;;155.68;150.52;;;;;;;;;;4997717;28;20262;-90
2023/09/21 05:57:04;;;;;;;154.57;149.80;;;;;;;;;;5000619;28;20575;-91
2023/09/21 05:59:33;;;;;;;157.77;152.85;;;;;;;;;;4982431;28;20199;-91
2023/09/21 06:02:13;;;;;;;156.90;152.13;;;;;;;;;;5001240;28;20191;-91
2023/09/21 06:05:18;;;;;;;161.95;156.60;;;;;;;;;;5001583;28;20226;-90
2023/09/21 06:07:58;;;;;;;144.80;140.38;;;;;;;;;;4977885;28;20223;-91
2023/09/21 06:10:35;;;;;;;166.98;161.85;;;;;;;;;;4998223;28;20184;-90
2023/09/21 06:13:05;;;;;;;172.40;167.25;;;;;;;;;;4985063;28;20269;-90
2023/09/21 06:15:32;;;;;;;175.23;169.80;;;;;;;;;;4984604;28;20384;-91
2023/09/21 06:17:58;;;;;;;159.80;154.87;;;;;;;;;;4984815;28;20208;-90
2023/09/21 06:20:34;;;;;;;180.57;175.23;;;;;;;;;;5002741;28;20195;-91
2023/09/21 06:23:21;;;;;;;179.53;174.17;;;;;;;;;;5001422;28;20190;-90
2023/09/21 06:25:54;;;;;;;170.40;165.32;;;;;;;;;;5002272;28;20215;-92
2023/09/21 06:28:30;;;;;;;182.48;176.82;;;;;;;;;;4985221;28;20229;-91
2023/09/21 06:31:25;;;;;;;156.57;151.77;;;;;;;;;;5004143;28;20188;-91
2023/09/21 06:36:56;;;;;;;152.02;147.40;;;;;;;;;;4972846;28;20213;-91
2023/09/21 06:39:29;;;;;;;152.80;148.10;;;;;;;;;;4970368;28;20220;-91
2023/09/21 06:41:55;;;;;;;171.38;166.25;;;;;;;;;;4980175;28;20193;-90
2023/09/21 06:44:29;;;;;;;175.25;169.98;;;;;;;;;;4987980;28;20240;-90
2023/09/21 06:46:56;;;;;;;207.18;200.82;;;;;;;;;;4981900;28;20196;-90
2023/09/21 06:49:23;;;;;;;199.27;193.25;;;;;;;;;;4987275;28;20196;-91
2023/09/21 06:52:01;;;;;;;195.60;189.83;;;;;;;;;;4970853;28;20193;-90
2023/09/21 06:54:57;;;;;;;181.50;176.17;;;;;;;;;;4986588;28;20209;-91
2023/09/21 07:00:30;;;;;;;153.77;149.07;;;;;;;;;;4965382;28;20541;-90
2023/09/21 07:02:59;;;;;;;165.40;160.40;;;;;;;;;;4957814;28;20205;-90
2023/09/21 07:05:25;;;;;;;170.25;165.02;;;;;;;;;;4960325;28;20321;-91
2023/09/21 07:07:55;;;;;;;185.30;179.80;;;;;;;;;;4979931;28;20727;-91
2023/09/21 07:10:27;;;;;;;191.65;185.93;;;;;;;;;;4980163;28;20233;-90
2023/09/21 07:12:53;;;;;;;201.38;195.50;;;;;;;;;;4985398;28;20643;-90
2023/09/21 07:15:19;;;;;;;223.23;216.55;;;;;;;;;;4983389;28;20206;-91
2023/09/21 07:18:01;;;;;;;229.77;223.07;;;;;;;;;;4987507;28;20198;-90
2023/09/21 07:20:30;;;;;;;221.75;215.27;;;;;;;;;;4977912;28;20205;-90
2023/09/21 07:22:57;;;;;;;217.02;210.55;;;;;;;;;;4980876;28;20285;-91
2023/09/21 07:25:29;;;;;;;219.85;213.32;;;;;;;;;;4978804;28;20302;-91
2023/09/21 07:27:55;;;;;;;240.75;233.60;;;;;;;;;;4964509;28;20268;-93
2023/09/21 07:30:22;;;;;;;254.05;246.63;;;;;;;;;;4982832;28;20194;-93
2023/09/21 07:32:58;;;;;;;245.77;238.52;;;;;;;;;;4986370;28;20900;-94
2023/09/21 07:35:27;;;;;;;242.77;235.68;;;;;;;;;;4983784;28;20330;-91
2023/09/21 07:37:56;;;;;;;253.35;245.93;;;;;;;;;;5000080;28;20232;-94
2023/09/21 07:40:25;;;;;;;294.17;284.77;;;;;;;;;;4983128;28;20552;-94
2023/09/21 07:42:51;;;;;;;317.13;307.63;;;;;;;;;;4984857;28;20224;-95
2023/09/21 07:45:34;;;;;;;330.85;320.70;;;;;;;;;;4972294;28;20268;-93
2023/09/21 07:48:05;;;;;;;355.95;345.30;;;;;;;;;;4966973;28;20268;-93
2023/09/21 07:50:34;;;;;;;383.83;371.92;;;;;;;;;;4960745;28;20338;-92
2023/09/21 07:53:04;;;;;;;395.38;383.27;;;;;;;;;;4964405;28;20191;-94
2023/09/21 07:55:30;;;;;;;379.40;367.77;;;;;;;;;;4971076;28;20225;-92
2023/09/21 07:57:56;;;;;;;383.50;371.85;;;;;;;;;;4986573;28;20728;-91
2023/09/21 08:03:18;;;;;;;414.73;401.77;;;;;;;;;;4977710;28;20197;-92
2023/09/21 08:05:44;;;;;;;416.05;402.90;;;;;;;;;;4990312;28;20470;-93
2023/09/21 08:08:16;;;;;;;406.85;394.60;;;;;;;;;;4964517;28;20268;-92
2023/09/21 08:10:43;;;;;;;438.40;424.77;;;;;;;;;;4981214;28;20747;-91
2023/09/21 08:13:09;;;;;;;428.27;414.73;;;;;;;;;;4980022;28;20284;-93
2023/09/21 08:15:36;;;;;;;428.02;414.55;;;;;;;;;;4972262;28;20639;-92
2023/09/21 08:18:02;;;;;;;445.23;431.25;;;;;;;;;;4981405;28;20198;-92
2023/09/21 08:20:34;;;;;;;420.55;407.27;;;;;;;;;;4972849;28;20194;-94
2023/09/21 08:23:06;;;;;;;447.27;433.00;;;;;;;;;;4980886;28;20202;-93
2023/09/21 08:25:35;;;;;;;463.25;448.52;;;;;;;;;;4969236;28;20190;-92
2023/09/21 08:28:03;;;;;;;463.67;448.92;;;;;;;;;;4984317;28;20218;-92
2023/09/21 08:30:30;;;;;;;467.60;452.20;;;;;;;;;;5004427;23;20244;-93
2023/09/21 08:32:56;;;;;;;469.55;454.63;;;;;;;;;;5027213;28;20234;-96
2023/09/21 08:35:22;;;;;;;459.83;445.17;;;;;;;;;;5031738;28;20205;-94
2023/09/21 08:37:50;;;;;;;459.52;445.08;;;;;;;;;;5032274;28;20193;-93
2023/09/21 08:40:16;;;;;;;455.77;441.27;;;;;;;;;;5031448;28;20205;-94
2023/09/21 08:42:44;;;;;;;463.08;448.35;;;;;;;;;;5015005;28;20190;-93
2023/09/21 08:45:11;;;;;;;473.48;458.25;;;;;;;;;;5031437;28;20187;-93
2023/09/21 08:47:40;;;;;;;455.77;441.35;;;;;;;;;;5034384;28;20221;-93
2023/09/21 08:50:10;;;;;;;466.20;451.23;;;;;;;;;;5034259;28;20252;-93
2023/09/21 08:52:36;;;;;;;475.42;460.05;;;;;;;;;;5034847;28;20177;-94
2023/09/21 08:55:03;;;;;;;492.25;476.08;;;;;;;;;;5036842;28;20227;-93
2023/09/21 08:57:30;;;;;;;508.15;491.10;;;;;;;;;;5037125;28;20215;-92
2023/09/21 08:59:58;;;;;;;507.33;490.63;;;;;;;;;;5035497;28;20223;-96
2023/09/21 09:02:24;;;;;;;516.97;499.92;;;;;;;;;;5038308;28;20185;-94
2023/09/21 09:04:53;;;;;;;503.58;486.83;;;;;;;;;;5019793;28;20191;-94
2023/09/21 09:07:20;;;;;;;501.27;485.02;;;;;;;;;;5042793;28;20225;-93
2023/09/21 09:09:46;;;;;;;510.85;494.10;;;;;;;;;;5037532;28;20297;-94
2023/09/21 09:12:22;;;;;;;498.20;481.75;;;;;;;;;;5036571;28;20277;-94
2023/09/21 09:14:49;;;;;;;437.08;423.30;;;;;;;;;;5019903;28;20272;-93
2023/09/21 09:17:15;;;;;;;397.40;385.60;;;;;;;;;;5037965;28;20189;-94
2023/09/21 09:19:42;;;;;;;402.13;389.60;;;;;;;;;;5035269;28;20209;-94
2023/09/21 09:22:10;;;;;;;392.27;380.42;;;;;;;;;;5037105;28;20235;-92
2023/09/21 09:24:37;;;;;;;406.75;393.88;;;;;;;;;;5018003;28;20180;-94
2023/09/21 09:27:03;;;;;;;416.35;403.70;;;;;;;;;;5033866;28;20215;-93
2023/09/21 09:29:30;;;;;;;471.88;457.05;;;;;;;;;;5017793;28;20262;-94
2023/09/21 09:31:56;;;;;;;397.83;385.92;;;;;;;;;;5038648;28;20177;-94
2023/09/21 09:34:22;;;;;;;434.83;421.70;;;;;;;;;;5035957;28;20188;-95
2023/09/21 09:36:52;;;;;;;462.65;448.20;;;;;;;;;;5036228;28;20192;-93
2023/09/21 09:39:19;;;;;;;457.42;443.48;;;;;;;;;;5037112;28;20212;-94
2023/09/21 09:41:50;;;;;;;473.88;458.95;;;;;;;;;;5019718;28;20185;-92
2023/09/21 09:44:18;;;;;;;504.70;488.35;;;;;;;;;;5018104;28;20215;-94
2023/09/21 09:46:45;;;;;;;483.63;468.23;;;;;;;;;;5038945;28;20193;-94
2023/09/21 09:49:11;;;;;;;501.13;484.85;;;;;;;;;;5037290;28;20212;-93
2023/09/21 09:51:46;;;;;;;483.30;468.13;;;;;;;;;;5035797;28;20192;-95
2023/09/21 09:54:13;;;;;;;554.47;536.15;;;;;;;;;;5037210;28;20708;-94
2023/09/21 09:56:41;;;;;;;535.45;516.85;;;;;;;;;;5038311;28;20173;-94
2023/09/21 09:59:08;;;;;;;554.80;535.70;;;;;;;;;;5037591;28;20201;-93
2023/09/21 10:01:37;;;;;;;549.03;530.42;;;;;;;;;;5038648;28;20979;-94
2023/09/21 10:04:03;;;;;;;559.10;540.33;;;;;;;;;;5044015;28;20213;-93
2023/09/21 10:06:29;;;;;;;536.55;518.75;;;;;;;;;;5047416;28;20702;-93
2023/09/21 10:08:56;;;;;;;498.33;482.15;;;;;;;;;;5036969;28;21103;-94
2023/09/21 10:11:23;;;;;;;546.10;528.05;;;;;;;;;;5027771;28;21489;-94
2023/09/21 10:13:51;;;;;;;535.90;518.17;;;;;;;;;;5045793;28;20410;-94
2023/09/21 10:16:18;;;;;;;530.78;513.15;;;;;;;;;;5024528;28;20184;-95
2023/09/21 10:18:45;;;;;;;543.08;525.08;;;;;;;;;;5038288;28;21020;-93
2023/09/21 10:21:13;;;;;;;533.28;515.40;;;;;;;;;;5040287;28;20180;-93
2023/09/21 10:23:59;;;;;;;539.67;521.70;;;;;;;;;;5036611;28;20227;-94
2023/09/21 10:26:25;;;;;;;515.35;498.88;;;;;;;;;;5037598;28;20348;-93
2023/09/21 10:28:53;;;;;;;539.85;521.83;;;;;;;;;;5034667;28;20205;-93
2023/09/21 10:31:23;;;;;;;559.10;540.38;;;;;;;;;;5026129;28;20197;-93
2023/09/21 10:33:55;;;;;;;557.20;538.55;;;;;;;;;;5039454;28;20642;-95
2023/09/21 10:36:22;;;;;;;560.10;541.17;;;;;;;;;;5039063;28;20184;-96
2023/09/21 10:39:06;;;;;;;578.97;559.42;;;;;;;;;;5034851;28;20185;-94
2023/09/21 10:41:36;;;;;;;578.70;558.90;;;;;;;;;;5038112;28;20216;-93
2023/09/21 10:44:02;;;;;;;578.63;559.17;;;;;;;;;;5041248;28;20204;-95
2023/09/21 10:46:34;;;;;;;598.85;578.55;;;;;;;;;;5036605;28;20184;-94
2023/09/21 10:49:12;;;;;;;604.20;583.35;;;;;;;;;;5035123;28;20274;-93
2023/09/21 10:51:41;;;;;;;608.15;586.95;;;;;;;;;;5038349;28;20187;-95
2023/09/21 10:54:07;;;;;;;610.60;589.33;;;;;;;;;;5038871;28;20208;-92
2023/09/21 10:56:34;;;;;;;634.42;611.58;;;;;;;;;;5020540;28;20212;-93
2023/09/21 10:59:00;;;;;;;648.50;625.03;;;;;;;;;;5039172;28;20223;-94
2023/09/21 11:01:27;;;;;;;646.83;623.45;;;;;;;;;;5040420;28;20236;-92
2023/09/21 11:03:54;;;;;;;681.15;656.25;;;;;;;;;;5039005;28;20685;-93
2023/09/21 11:06:21;;;;;;;688.17;661.47;;;;;;;;;;5021528;28;20719;-93
2023/09/21 11:08:48;;;;;;;681.53;655.50;;;;;;;;;;5039513;28;20209;-93
2023/09/21 11:11:14;;;;;;;685.85;660.35;;;;;;;;;;5040328;28;20291;-95
2023/09/21 11:13:41;;;;;;;683.33;658.10;;;;;;;;;;5040947;28;20417;-95
2023/09/21 11:16:09;;;;;;;657.70;633.95;;;;;;;;;;5030277;28;20192;-93
2023/09/21 11:18:38;;;;;;;656.70;632.85;;;;;;;;;;5044419;28;20181;-94
2023/09/21 11:21:04;;;;;;;665.58;641.35;;;;;;;;;;5044830;28;20165;-93
2023/09/21 11:23:33;;;;;;;662.53;638.42;;;;;;;;;;5044344;28;20189;-95
2023/09/21 11:26:00;;;;;;;668.28;644.20;;;;;;;;;;5046699;28;20180;-93
2023/09/21 11:28:27;;;;;;;674.00;649.72;;;;;;;;;;5043382;28;20219;-93
2023/09/21 11:30:54;;;;;;;653.90;630.33;;;;;;;;;;5043249;28;20212;-94
2023/09/21 11:33:21;;;;;;;661.90;637.47;;;;;;;;;;5050177;28;20215;-93
2023/09/21 11:35:47;;;;;;;684.00;658.13;;;;;;;;;;5046838;28;20177;-95
2023/09/21 11:38:16;;;;;;;687.72;661.65;;;;;;;;;;5023737;28;20185;-94
2023/09/21 11:40:42;;;;;;;1328.53;816.28;;;;;;;;;;5023265;28;20220;-93
2023/09/21 11:43:16;;;;;;;1999.90;999.90;;;;;;;;;;5026011;28;20235;-93
2023/09/21 11:45:46;;;;;;;1999.90;999.90;;;;;;;;;;5040682;28;20236;-95
2023/09/21 11:48:12;;;;;;;1999.90;999.90;;;;;;;;;;5036568;28;20200;-92
2023/09/21 11:50:39;;;;;;;1999.90;999.90;;;;;;;;;;5021877;28;20235;-93
2023/09/21 11:53:07;;;;;;;1999.90;999.90;;;;;;;;;;5039553;28;20173;-95
2023/09/21 11:55:33;;;;;;;1999.90;999.90;;;;;;;;;;5033489;28;20227;-95
2023/09/21 11:58:15;;;;;;;1999.90;999.90;;;;;;;;;;5036265;28;20224;-92
2023/09/21 12:00:45;;;;;;;1999.90;999.90;;;;;;;;;;5034489;28;20291;-92
2023/09/21 12:03:13;;;;;;;1999.90;999.90;;;;;;;;;;5037977;28;20220;-94
2023/09/21 12:05:42;;;;;;;1999.90;999.90;;;;;;;;;;5041726;28;20180;-96
2023/09/21 12:08:11;;;;;;;1999.90;999.90;;;;;;;;;;5022172;28;20205;-93
2023/09/21 12:10:37;;;;;;;1999.90;999.90;;;;;;;;;;5039133;28;20278;-94
2023/09/21 12:13:03;;;;;;;1999.90;999.90;;;;;;;;;;5032535;28;20452;-93
2023/09/21 12:15:30;;;;;;;1999.90;999.90;;;;;;;;;;5034343;28;20200;-96
2023/09/21 12:17:56;;;;;;;1999.90;999.90;;;;;;;;;;5039143;28;20191;-95
2023/09/21 12:20:22;;;;;;;1999.90;999.90;;;;;;;;;;5034324;28;20193;-95
2023/09/21 12:22:48;;;;;;;1999.90;999.90;;;;;;;;;;5033266;28;20215;-94
2023/09/21 12:25:14;;;;;;;1999.90;999.90;;;;;;;;;;5045240;28;20184;-95
2023/09/21 12:27:42;;;;;;;1999.90;999.90;;;;;;;;;;5041821;28;20196;-96
2023/09/21 12:30:12;;;;;;;1999.90;999.90;;;;;;;;;;5039399;28;20287;-95
2023/09/21 12:32:38;;;;;;;1999.90;999.90;;;;;;;;;;5040483;28;20189;-95
2023/09/21 12:35:07;;;;;;;1999.90;999.90;;;;;;;;;;5041462;28;20161;-94
2023/09/21 12:37:33;;;;;;;1999.90;999.90;;;;;;;;;;5024511;28;20227;-95
2023/09/21 12:39:59;;;;;;;1999.90;999.90;;;;;;;;;;5039376;28;20213;-96
2023/09/21 12:42:27;;;;;;;1999.90;999.90;;;;;;;;;;5047070;28;20197;-94
2023/09/21 12:44:53;;;;;;;1999.90;999.90;;;;;;;;;;5028877;28;20191;-94
2023/09/21 12:47:19;;;;;;;1999.90;999.90;;;;;;;;;;5042910;28;20268;-94
2023/09/21 12:49:45;;;;;;;1999.90;999.90;;;;;;;;;;5029761;28;20406;-94
2023/09/21 12:52:14;;;;;;;1999.90;999.90;;;;;;;;;;5027033;28;20185;-94
2023/09/21 12:54:41;;;;;;;1999.90;999.90;;;;;;;;;;5042421;28;20200;-93
2023/09/21 12:57:07;;;;;;;1999.90;999.90;;;;;;;;;;5027081;28;20647;-94
2023/09/21 12:59:35;;;;;;;1999.90;999.90;;;;;;;;;;5047018;28;20188;-94
2023/09/21 13:02:01;;;;;;;1999.90;999.90;;;;;;;;;;5042014;28;20164;-93
2023/09/21 13:04:27;;;;;;;1999.90;999.90;;;;;;;;;;5022462;28;20185;-93
2023/09/21 13:06:53;;;;;;;1999.90;999.90;;;;;;;;;;5042579;28;20204;-94
2023/09/21 13:09:19;;;;;;;1999.90;999.90;;;;;;;;;;5037594;28;20217;-93
2023/09/21 13:11:45;;;;;;;1999.90;999.90;;;;;;;;;;5039162;28;20201;-96
2023/09/21 13:14:11;;;;;;;1999.90;999.90;;;;;;;;;;5040600;28;20212;-93
2023/09/21 13:16:37;;;;;;;1999.90;999.90;;;;;;;;;;5042330;28;20181;-96
2023/09/21 13:19:03;;;;;;;1999.90;999.90;;;;;;;;;;5040540;28;20212;-94
2023/09/21 13:21:29;;;;;;;1999.90;999.90;;;;;;;;;;5042341;28;20189;-89
2023/09/21 13:23:55;;;;;;;1999.90;999.90;;;;;;;;;;5041550;28;20192;-95
2023/09/21 13:26:21;;;;;;;1999.90;999.90;;;;;;;;;;5043112;28;20169;-95
2023/09/21 13:28:47;;;;;;;1999.90;999.90;;;;;;;;;;5037892;28;20315;-95
2023/09/21 13:31:14;;;;;;;1999.90;999.90;;;;;;;;;;5036542;28;20188;-92
2023/09/21 13:33:40;;;;;;;1999.90;999.90;;;;;;;;;;5036131;28;20782;-95
2023/09/21 13:36:07;;;;;;;1999.90;999.90;;;;;;;;;;5040833;28;20192;-95
2023/09/21 13:38:33;;;;;;;1999.90;999.90;;;;;;;;;;5043118;28;20216;-93
2023/09/21 13:40:59;;;;;;;1999.90;999.90;;;;;;;;;;5042882;28;20205;-95
2023/09/21 13:43:25;;;;;;;1999.90;999.90;;;;;;;;;;5042661;28;20216;-95
2023/09/21 13:45:52;;;;;;;1999.90;999.90;;;;;;;;;;5041735;28;20177;-96
2023/09/21 13:48:22;;;;;;;1999.90;999.90;;;;;;;;;;5041989;28;20212;-94
2023/09/21 13:50:50;;;;;;;1999.90;999.90;;;;;;;;;;5019894;28;20201;-93
2023/09/21 13:53:17;;;;;;;1999.90;999.90;;;;;;;;;;5040682;28;20185;-93
2023/09/21 13:55:43;;;;;;;1999.90;999.90;;;;;;;;;;5041615;28;20184;-95
2023/09/21 13:58:09;;;;;;;1999.90;999.90;;;;;;;;;;5040826;28;20746;-93
2023/09/21 14:00:35;;;;;;;1999.90;999.90;;;;;;;;;;5024398;28;20304;-95
2023/09/21 14:03:01;;;;;;;1999.90;999.90;;;;;;;;;;5047107;28;20185;-94
2023/09/21 14:05:27;;;;;;;1999.90;999.90;;;;;;;;;;5043612;28;20255;-95
2023/09/21 14:07:53;;;;;;;1999.90;999.90;;;;;;;;;;5043662;28;20209;-95